createdAt,value
2022-08-21T00:00:51.079Z,6.10
2022-08-21T00:10:58.623Z,7.10
2022-08-21T00:16:02.342Z,6.70
2022-08-21T00:26:09.328Z,5.90
2022-08-21T00:31:13.155Z,6.20
2022-08-21T00:36:16.629Z,6.90
2022-08-21T00:41:37.067Z,6.70
2022-08-21T00:46:44.135Z,6.80
2022-08-21T00:51:54.702Z,6.80
2022-08-21T00:57:03.951Z,7.70
2022-08-21T01:02:10.286Z,8.10
2022-08-21T01:07:14.874Z,7.90
2022-08-21T01:12:18.817Z,7.40
2022-08-21T01:17:22.726Z,7.20
2022-08-21T01:22:26.447Z,6.30
2022-08-21T01:27:29.861Z,6.50
2022-08-21T01:32:33.273Z,7.80
2022-08-21T01:37:36.794Z,9.20
2022-08-21T01:47:45.049Z,9.10
2022-08-21T01:52:49.592Z,9.30
2022-08-21T01:57:53.105Z,9.10
2022-08-21T02:02:57.363Z,9.50
2022-08-21T02:08:01.163Z,8.40
2022-08-21T02:13:05.086Z,8.00
2022-08-21T02:18:08.501Z,8.30
2022-08-21T02:23:14.062Z,8.70
2022-08-21T02:28:17.478Z,9.10
2022-08-21T02:33:21.103Z,8.50
2022-08-21T02:43:29.970Z,8.10
2022-08-21T02:48:34.980Z,9.10
2022-08-21T02:53:39.357Z,8.60
2022-08-21T02:58:48.913Z,9.00
2022-08-21T03:03:52.840Z,8.10
2022-08-21T03:08:56.459Z,8.30
2022-08-21T03:19:04.484Z,8.10
2022-08-21T03:24:08.421Z,7.50
2022-08-21T03:29:12.110Z,7.30
2022-08-21T03:34:15.573Z,9.10
2022-08-21T03:39:19.907Z,8.30
2022-08-21T03:44:23.525Z,9.40
2022-08-21T03:49:27.510Z,8.60
2022-08-21T03:54:31.275Z,8.90
2022-08-21T03:59:34.689Z,10.10
2022-08-21T04:04:38.509Z,9.30
2022-08-21T04:09:41.924Z,9.20
2022-08-21T04:14:45.850Z,10.10
2022-08-21T04:19:53.188Z,9.30
2022-08-21T04:24:57.182Z,8.20
2022-08-21T04:30:01.414Z,9.10
2022-08-21T04:35:10.166Z,9.00
2022-08-21T04:40:15.673Z,9.60
2022-08-21T04:45:23.226Z,9.50
2022-08-21T04:50:37.698Z,9.30
2022-08-21T04:55:43.232Z,9.50
2022-08-21T05:00:47.600Z,8.40
2022-08-21T05:05:51.269Z,8.80
2022-08-21T05:11:00.169Z,8.90
2022-08-21T05:16:04.596Z,8.50
2022-08-21T05:21:07.911Z,9.50
2022-08-21T05:26:18.141Z,10.80
2022-08-21T05:31:22.207Z,9.10
2022-08-21T05:41:28.932Z,9.50
2022-08-21T05:46:32.487Z,9.50
2022-08-21T05:56:40.197Z,8.50
2022-08-21T06:01:43.573Z,8.10
2022-08-21T06:06:48.994Z,8.80
2022-08-21T06:11:52.382Z,8.30
2022-08-21T06:16:55.694Z,7.90
2022-08-21T06:27:09.586Z,8.30
2022-08-21T06:32:14.051Z,8.70
2022-08-21T06:37:19.590Z,7.90
2022-08-21T06:42:23.000Z,6.60
2022-08-21T06:47:31.537Z,7.40
2022-08-21T06:52:38.940Z,7.40
2022-08-21T06:57:42.460Z,7.30
2022-08-21T07:02:51.578Z,6.80
2022-08-21T07:07:55.433Z,6.20
2022-08-21T07:13:00.551Z,6.40
2022-08-21T07:18:05.223Z,6.60
2022-08-21T07:23:15.554Z,6.20
2022-08-21T07:28:19.217Z,5.90
2022-08-21T07:33:24.620Z,5.50
2022-08-21T07:38:28.456Z,5.80
2022-08-21T07:43:31.921Z,5.30
2022-08-21T07:48:35.137Z,6.10
2022-08-21T07:53:39.502Z,5.20
2022-08-21T07:58:42.758Z,5.40
2022-08-21T08:03:46.596Z,5.60
2022-08-21T08:08:50.237Z,5.20
2022-08-21T08:13:53.735Z,4.60
2022-08-21T08:18:57.041Z,4.70
2022-08-21T08:24:00.680Z,4.70
2022-08-21T08:29:23.635Z,5.20
2022-08-21T08:34:26.896Z,4.50
2022-08-21T08:39:31.070Z,5.00
2022-08-21T08:44:35.833Z,4.60
2022-08-21T08:49:45.498Z,4.70
2022-08-21T08:55:04.452Z,4.70
2022-08-21T09:00:12.126Z,5.30
2022-08-21T09:05:26.699Z,5.40
2022-08-21T09:10:36.804Z,4.90
2022-08-21T09:16:03.575Z,4.40
2022-08-21T09:21:37.546Z,5.10
2022-08-21T09:27:00.750Z,5.00
2022-08-21T09:32:38.331Z,5.10
2022-08-21T09:38:08.480Z,4.80
2022-08-21T09:43:22.162Z,4.30
2022-08-21T09:48:32.741Z,4.50
2022-08-21T09:53:44.238Z,4.60
2022-08-21T09:58:51.402Z,4.60
2022-08-21T10:04:10.406Z,4.80
2022-08-21T10:09:21.482Z,4.50
2022-08-21T10:14:46.359Z,4.80
2022-08-21T10:20:02.784Z,4.10
2022-08-21T10:25:12.033Z,4.10
2022-08-21T10:30:26.911Z,4.00
2022-08-21T10:35:38.212Z,4.70
2022-08-21T10:40:44.491Z,4.50
2022-08-21T10:45:54.355Z,4.20
2022-08-21T10:51:28.972Z,4.30
2022-08-21T10:56:37.739Z,3.60
2022-08-21T11:01:59.174Z,4.00
2022-08-21T11:07:17.392Z,3.90
2022-08-21T11:12:35.083Z,4.10
2022-08-21T11:17:48.735Z,4.00
2022-08-21T11:23:03.673Z,4.20
2022-08-21T11:28:28.127Z,3.20
2022-08-21T11:33:53.965Z,3.10
2022-08-21T11:39:33.425Z,3.70
2022-08-21T11:45:08.685Z,3.90
2022-08-21T11:50:35.766Z,3.50
2022-08-21T11:55:52.376Z,4.40
2022-08-21T12:01:02.241Z,3.70
2022-08-21T12:06:12.927Z,3.60
2022-08-21T12:11:19.101Z,3.20
2022-08-21T12:16:36.091Z,2.80
2022-08-21T12:21:54.146Z,3.70
2022-08-21T12:26:59.163Z,4.50
2022-08-21T12:32:06.922Z,3.60
2022-08-21T12:37:23.227Z,3.60
2022-08-21T12:42:40.990Z,3.70
2022-08-21T12:48:01.536Z,3.60
2022-08-21T12:53:20.946Z,3.80
2022-08-21T12:58:26.029Z,3.90
2022-08-21T13:03:30.518Z,4.10
2022-08-21T13:08:41.643Z,4.50
2022-08-21T13:13:51.342Z,4.10
2022-08-21T13:18:59.192Z,4.50
2022-08-21T13:24:40.766Z,4.20
2022-08-21T13:29:40.733Z,5.30
2022-08-21T13:34:49.023Z,4.90
2022-08-21T13:39:57.418Z,4.70
2022-08-21T13:45:00.697Z,4.30
2022-08-21T13:50:04.827Z,4.20
2022-08-21T13:55:15.107Z,3.80
2022-08-21T14:00:26.299Z,3.70
2022-08-21T14:05:35.416Z,3.20
2022-08-21T14:10:45.924Z,4.00
2022-08-21T14:15:58.253Z,4.10
2022-08-21T14:21:26.675Z,4.10
2022-08-21T14:26:30.263Z,3.90
2022-08-21T14:31:36.768Z,4.20
2022-08-21T14:36:46.463Z,3.10
2022-08-21T14:41:50.538Z,5.40
2022-08-21T14:46:56.418Z,4.40
2022-08-21T14:52:00.593Z,4.80
2022-08-21T14:57:11.135Z,4.00
2022-08-21T15:02:14.535Z,5.10
2022-08-21T15:12:21.260Z,5.70
2022-08-21T15:22:28.659Z,5.60
2022-08-21T15:27:32.601Z,3.90
2022-08-21T15:32:36.350Z,4.40
2022-08-21T15:37:39.759Z,3.50
2022-08-21T15:42:44.197Z,3.40
2022-08-21T15:47:50.374Z,3.50
2022-08-21T15:52:54.403Z,3.80
2022-08-21T15:58:00.794Z,3.20
2022-08-21T16:03:08.422Z,3.30
2022-08-21T16:08:12.277Z,4.00
2022-08-21T16:13:26.593Z,3.40
2022-08-21T16:18:30.004Z,3.50
2022-08-21T16:23:36.587Z,3.50
2022-08-21T16:28:43.220Z,3.70
2022-08-21T16:33:51.917Z,3.50
2022-08-21T16:39:01.662Z,3.10
2022-08-21T16:44:07.242Z,4.10
2022-08-21T16:49:13.012Z,3.70
2022-08-21T16:54:16.426Z,3.30
2022-08-21T16:59:19.738Z,3.40
2022-08-21T17:04:23.048Z,3.30
2022-08-21T17:14:30.079Z,4.40
2022-08-21T17:19:34.005Z,3.50
2022-08-21T17:24:38.382Z,4.40
2022-08-21T17:29:42.161Z,3.90
2022-08-21T17:34:46.395Z,4.20
2022-08-21T17:39:49.722Z,4.10
2022-08-21T17:44:53.220Z,3.50
2022-08-21T17:54:59.945Z,4.80
2022-08-21T18:00:07.098Z,4.80
2022-08-21T18:05:13.443Z,3.10
2022-08-21T18:10:17.817Z,3.20
2022-08-21T18:15:21.644Z,3.20
2022-08-21T18:20:24.998Z,3.10
2022-08-21T18:25:29.291Z,3.70
2022-08-21T18:30:35.593Z,3.70
2022-08-21T18:35:39.029Z,3.30
2022-08-21T18:40:47.474Z,3.60
2022-08-21T18:45:51.844Z,2.80
2022-08-21T18:57:57.282Z,4.90
2022-08-21T19:03:01.907Z,3.20
2022-08-21T19:13:36.231Z,4.20
2022-08-21T19:18:41.574Z,3.40
2022-08-21T19:23:52.600Z,3.50
2022-08-21T19:28:59.753Z,4.10
2022-08-21T19:34:07.405Z,4.10
2022-08-21T19:39:13.095Z,3.50
2022-08-21T19:44:23.639Z,4.30
2022-08-21T19:49:33.278Z,3.20
2022-08-21T19:54:37.211Z,4.70
2022-08-21T19:59:42.369Z,4.50
2022-08-21T20:04:53.753Z,3.50
2022-08-21T20:10:10.800Z,4.00
2022-08-21T20:15:23.429Z,3.50
2022-08-21T20:20:26.739Z,3.90
2022-08-21T20:25:36.969Z,2.50
2022-08-21T20:30:46.813Z,5.30
2022-08-21T20:36:05.257Z,3.40
2022-08-21T20:46:27.020Z,3.30
2022-08-21T20:51:39.832Z,2.90
2022-08-21T20:56:56.391Z,2.30
2022-08-21T21:02:15.993Z,2.20
2022-08-21T21:07:34.501Z,1.50
2022-08-21T21:12:43.028Z,2.00
2022-08-21T21:17:55.095Z,1.80
2022-08-21T21:23:12.499Z,1.50
2022-08-21T21:28:22.979Z,1.40
2022-08-21T21:33:28.699Z,1.70
2022-08-21T21:49:52.555Z,1.70
2022-08-21T21:55:18.046Z,2.40
2022-08-21T22:00:27.244Z,1.60
2022-08-21T22:05:33.615Z,1.40
2022-08-21T22:10:47.271Z,1.70
2022-08-21T22:15:53.094Z,1.70
2022-08-21T22:21:17.542Z,1.90
2022-08-21T22:32:08.380Z,1.80
2022-08-21T22:37:13.115Z,1.40
2022-08-21T22:42:25.610Z,1.40
2022-08-21T22:47:37.542Z,1.20
2022-08-21T22:52:47.380Z,1.20
2022-08-21T22:58:11.719Z,1.50
2022-08-21T23:08:55.818Z,1.50
2022-08-21T23:19:27.167Z,1.30
2022-08-21T23:24:34.342Z,1.40
2022-08-21T23:29:45.022Z,1.10
2022-08-21T23:35:22.455Z,1.30
2022-08-21T23:40:37.521Z,1.40
2022-08-21T23:46:04.977Z,1.50
2022-08-21T23:51:37.675Z,1.10
2022-08-21T23:57:00.362Z,1.40
